Taunsa Weather



Taunsa's Current Weather

Temprature 18.44o clear sky

clear sky

Rain: 0 %

Min Temprature18.44o
Max Temprature18.44o
Humidity26
Wind Speed2.78 m/h
Sun Rise06:29:06
Sun Set17:33:02
Current Time: 28-Oct-2020 04:50:34
Lat/Lon: 30.7, 70.65




Taunsa's Geo Location



Taunsa's Weather Forecast

Time Overall Temp Min Temp Max Temp Humidity Wind Speed Rain
28-Oct-2020 (Wed)
05:00:00 clear sky 17.840 17.840 18.440 27 2.78 m/h 0 %
08:00:00 clear sky 21.620 21.620 22.820 21 2.72 m/h 0 %
11:00:00 clear sky 29.230 29.230 30.050 13 3.84 m/h 0 %
14:00:00 clear sky 32.340 32.340 32.460 11 2.48 m/h 0 %
17:00:00 clear sky 27.190 27.190 27.190 16 0.13 m/h 0 %
20:00:00 clear sky 21.800 21.800 21.800 21 1.88 m/h 0 %
23:00:00 clear sky 18.990 18.990 18.990 25 0.92 m/h 0 %
29-Oct-2020 (Thu)
02:00:00 clear sky 18.570 18.570 18.570 26 1.7 m/h 0 %
05:00:00 clear sky 19.600 19.600 19.600 25 3.18 m/h 0 %
08:00:00 clear sky 24.020 24.020 24.020 19 3.09 m/h 0 %
11:00:00 clear sky 30.740 30.740 30.740 12 5.17 m/h 0 %
14:00:00 clear sky 32.760 32.760 32.760 11 4 m/h 0 %
17:00:00 clear sky 29.240 29.240 29.240 13 2.85 m/h 0 %
20:00:00 clear sky 21.280 21.280 21.280 22 1.92 m/h 0 %
23:00:00 clear sky 20.900 20.900 20.900 22 2.19 m/h 0 %
30-Oct-2020 (Fri)
02:00:00 clear sky 19.700 19.700 19.700 24 1.65 m/h 0 %
05:00:00 clear sky 18.090 18.090 18.090 27 2.1 m/h 0 %
08:00:00 clear sky 23.720 23.720 23.720 19 2.74 m/h 0 %
11:00:00 clear sky 30.910 30.910 30.910 12 4.09 m/h 0 %
14:00:00 clear sky 32.930 32.930 32.930 11 3.11 m/h 0 %
17:00:00 clear sky 29.480 29.480 29.480 13 3.14 m/h 0 %
20:00:00 clear sky 20.710 20.710 20.710 23 0.74 m/h 0 %
23:00:00 clear sky 20.850 20.850 20.850 23 1.97 m/h 0 %
31-Oct-2020 (Sat)
02:00:00 clear sky 18.750 18.750 18.750 26 0.74 m/h 0 %
05:00:00 clear sky 16.480 16.480 16.480 30 0.5 m/h 0 %
08:00:00 clear sky 24.760 24.760 24.760 18 0.7 m/h 0 %
11:00:00 clear sky 31.000 31.000 31.000 12 0.52 m/h 0 %
14:00:00 clear sky 33.350 33.350 33.350 10 1.13 m/h 0 %
17:00:00 clear sky 28.260 28.260 28.260 14 1.79 m/h 0 %
20:00:00 clear sky 20.260 20.260 20.260 23 0.9 m/h 0 %
23:00:00 clear sky 19.480 19.480 19.480 24 1.3 m/h 0 %
01-Nov-2020 (Sun)
02:00:00 clear sky 18.740 18.740 18.740 25 1.33 m/h 0 %
05:00:00 clear sky 16.910 16.910 16.910 27 0.95 m/h 0 %
08:00:00 clear sky 24.270 24.270 24.270 17 0.42 m/h 0 %
11:00:00 clear sky 30.690 30.690 30.690 12 1.58 m/h 0 %
14:00:00 clear sky 33.110 33.110 33.110 10 2.24 m/h 0 %
17:00:00 clear sky 26.940 26.940 26.940 14 1.52 m/h 0 %
20:00:00 clear sky 19.050 19.050 19.050 22 0.73 m/h 0 %
23:00:00 clear sky 18.260 18.260 18.260 23 1.34 m/h 0 %
02-Nov-2020 (Mon)
02:00:00 clear sky 17.070 17.070 17.070 29 0.74 m/h 0 %

Famous Cities (60)